sensor_id;sensor_type;location;lat;lon;timestamp;pressure;altitude;pressure_sealevel;temperature;humidity
11053;BME280;55230;42.602;23.470;2023-06-14T00:02:21;93293.50;;;15.66;100.00
11053;BME280;55230;42.602;23.470;2023-06-14T00:04:48;93289.09;;;15.74;100.00
11053;BME280;55230;42.602;23.470;2023-06-14T00:07:16;93288.88;;;15.72;100.00
11053;BME280;55230;42.602;23.470;2023-06-14T00:09:43;93288.34;;;15.68;100.00
11053;BME280;55230;42.602;23.470;2023-06-14T00:12:10;93290.34;;;15.73;100.00
11053;BME280;55230;42.602;23.470;2023-06-14T00:14:36;93289.63;;;15.78;100.00
11053;BME280;55230;42.602;23.470;2023-06-14T00:17:04;93279.16;;;15.65;100.00
11053;BME280;55230;42.602;23.470;2023-06-14T00:19:32;93281.66;;;15.63;100.00
11053;BME280;55230;42.602;23.470;2023-06-14T00:22:00;93273.78;;;15.71;100.00
11053;BME280;55230;42.602;23.470;2023-06-14T00:24:27;93270.06;;;15.74;100.00
11053;BME280;55230;42.602;23.470;2023-06-14T00:26:53;93275.06;;;15.81;100.00
11053;BME280;55230;42.602;23.470;2023-06-14T00:29:20;93277.31;;;15.82;100.00
11053;BME280;55230;42.602;23.470;2023-06-14T00:31:46;93272.13;;;15.79;100.00
11053;BME280;55230;42.602;23.470;2023-06-14T00:34:14;93268.88;;;15.75;100.00
11053;BME280;55230;42.602;23.470;2023-06-14T00:36:41;93271.41;;;15.84;100.00
11053;BME280;55230;42.602;23.470;2023-06-14T00:39:07;93269.44;;;15.90;100.00
11053;BME280;55230;42.602;23.470;2023-06-14T00:41:34;93263.28;;;15.95;100.00
11053;BME280;55230;42.602;23.470;2023-06-14T00:44:01;93266.28;;;15.97;100.00
11053;BME280;55230;42.602;23.470;2023-06-14T00:46:28;93259.84;;;16.00;100.00
11053;BME280;55230;42.602;23.470;2023-06-14T00:48:54;93256.41;;;16.05;100.00
11053;BME280;55230;42.602;23.470;2023-06-14T00:51:23;93252.00;;;16.07;100.00
11053;BME280;55230;42.602;23.470;2023-06-14T00:53:51;93259.41;;;16.07;100.00
11053;BME280;55230;42.602;23.470;2023-06-14T00:56:18;93259.84;;;16.00;100.00
11053;BME280;55230;42.602;23.470;2023-06-14T00:58:45;93252.47;;;16.06;100.00
11053;BME280;55230;42.602;23.470;2023-06-14T01:01:12;93256.88;;;15.98;100.00
11053;BME280;55230;42.602;23.470;2023-06-14T01:03:39;93262.06;;;15.96;100.00
11053;BME280;55230;42.602;23.470;2023-06-14T01:06:08;93266.25;;;15.91;100.00
11053;BME280;55230;42.602;23.470;2023-06-14T01:08:43;93261.34;;;16.01;100.00
11053;BME280;55230;42.602;23.470;2023-06-14T01:11:16;93250.50;;;16.06;100.00
11053;BME280;55230;42.602;23.470;2023-06-14T01:13:43;93249.03;;;16.11;100.00
11053;BME280;55230;42.602;23.470;2023-06-14T01:16:11;93246.59;;;16.13;100.00
11053;BME280;55230;42.602;23.470;2023-06-14T01:18:38;93256.47;;;16.16;100.00
11053;BME280;55230;42.602;23.470;2023-06-14T01:21:15;93248.59;;;16.18;100.00
11053;BME280;55230;42.602;23.470;2023-06-14T01:23:47;93248.81;;;16.14;100.00
11053;BME280;55230;42.602;23.470;2023-06-14T01:26:17;93245.88;;;16.18;100.00
11053;BME280;55230;42.602;23.470;2023-06-14T01:28:44;93250.81;;;16.19;100.00
11053;BME280;55230;42.602;23.470;2023-06-14T01:31:14;93256.25;;;16.19;100.00
11053;BME280;55230;42.602;23.470;2023-06-14T01:33:41;93249.09;;;16.22;100.00
11053;BME280;55230;42.602;23.470;2023-06-14T01:36:08;93260.94;;;16.19;100.00
11053;BME280;55230;42.602;23.470;2023-06-14T01:38:35;93248.03;;;16.03;100.00
11053;BME280;55230;42.602;23.470;2023-06-14T01:41:04;93245.06;;;16.06;100.00
11053;BME280;55230;42.602;23.470;2023-06-14T01:43:32;93250.53;;;16.12;100.00
11053;BME280;55230;42.602;23.470;2023-06-14T01:45:59;93252.03;;;16.13;100.00
11053;BME280;55230;42.602;23.470;2023-06-14T01:48:26;93252.03;;;16.13;100.00
11053;BME280;55230;42.602;23.470;2023-06-14T01:50:53;93251.53;;;16.14;100.00
11053;BME280;55230;42.602;23.470;2023-06-14T01:53:19;93249.56;;;16.15;100.00
11053;BME280;55230;42.602;23.470;2023-06-14T01:55:46;93242.34;;;16.12;100.00
11053;BME280;55230;42.602;23.470;2023-06-14T01:58:15;93243.88;;;16.13;100.00
11053;BME280;55230;42.602;23.470;2023-06-14T02:00:42;93246.84;;;16.15;100.00
11053;BME280;55230;42.602;23.470;2023-06-14T02:03:10;93242.13;;;16.10;100.00
11053;BME280;55230;42.602;23.470;2023-06-14T02:05:38;93249.03;;;16.11;100.00
11053;BME280;55230;42.602;23.470;2023-06-14T02:08:04;93247.56;;;16.10;100.00
11053;BME280;55230;42.602;23.470;2023-06-14T02:10:31;93258.91;;;16.03;100.00
11053;BME280;55230;42.602;23.470;2023-06-14T02:12:57;93267.19;;;15.83;100.00
11053;BME280;55230;42.602;23.470;2023-06-14T02:15:25;93268.81;;;15.69;100.00
11053;BME280;55230;42.602;23.470;2023-06-14T02:17:58;93268.78;;;15.64;100.00
11053;BME280;55230;42.602;23.470;2023-06-14T02:20:25;93268.34;;;15.71;100.00
11053;BME280;55230;42.602;23.470;2023-06-14T02:22:51;93273.59;;;15.80;100.00
11053;BME280;55230;42.602;23.470;2023-06-14T02:25:18;93273.16;;;15.87;100.00
11053;BME280;55230;42.602;23.470;2023-06-14T02:27:44;93277.59;;;15.90;100.00
11053;BME280;55230;42.602;23.470;2023-06-14T02:30:11;93267.94;;;15.83;100.00
11053;BME280;55230;42.602;23.470;2023-06-14T02:32:39;93280.06;;;15.88;100.00
11053;BME280;55230;42.602;23.470;2023-06-14T02:35:08;93276.13;;;15.89;100.00
11053;BME280;55230;42.602;23.470;2023-06-14T02:37:35;93270.25;;;15.96;100.00
11053;BME280;55230;42.602;23.470;2023-06-14T02:40:01;93273.47;;;16.00;100.00
11053;BME280;55230;42.602;23.470;2023-06-14T02:42:28;93273.97;;;16.04;100.00
11053;BME280;55230;42.602;23.470;2023-06-14T02:44:55;93276.38;;;15.91;100.00
11053;BME280;55230;42.602;23.470;2023-06-14T02:47:22;93279.56;;;15.84;100.00
11053;BME280;55230;42.602;23.470;2023-06-14T02:49:51;93283.75;;;15.85;100.00
11053;BME280;55230;42.602;23.470;2023-06-14T02:52:17;93288.47;;;15.90;100.00
11053;BME280;55230;42.602;23.470;2023-06-14T02:54:44;93291.94;;;15.90;100.00
11053;BME280;55230;42.602;23.470;2023-06-14T02:57:12;93293.16;;;15.89;100.00
11053;BME280;55230;42.602;23.470;2023-06-14T02:59:38;93295.88;;;15.89;100.00
11053;BME280;55230;42.602;23.470;2023-06-14T03:02:05;93290.22;;;15.93;100.00
11053;BME280;55230;42.602;23.470;2023-06-14T03:04:31;93289.69;;;15.83;100.00
11053;BME280;55230;42.602;23.470;2023-06-14T03:07:03;93290.44;;;15.89;100.00
11053;BME280;55230;42.602;23.470;2023-06-14T03:09:34;93299.88;;;15.94;100.00
11053;BME280;55230;42.602;23.470;2023-06-14T03:12:01;93296.44;;;15.99;100.00
11053;BME280;55230;42.602;23.470;2023-06-14T03:14:28;93298.47;;;16.04;100.00
11053;BME280;55230;42.602;23.470;2023-06-14T03:16:54;93295.03;;;16.09;100.00
11053;BME280;55230;42.602;23.470;2023-06-14T03:19:21;93286.16;;;16.14;100.00
11053;BME280;55230;42.602;23.470;2023-06-14T03:21:48;93297.03;;;16.14;100.00
11053;BME280;55230;42.602;23.470;2023-06-14T03:24:16;93299.25;;;16.15;100.00
11053;BME280;55230;42.602;23.470;2023-06-14T03:26:43;93304.47;;;16.19;100.00
11053;BME280;55230;42.602;23.470;2023-06-14T03:29:09;93299.78;;;16.19;100.00
11053;BME280;55230;42.602;23.470;2023-06-14T03:31:36;93302.91;;;16.07;100.00
11053;BME280;55230;42.602;23.470;2023-06-14T03:34:02;93304.66;;;16.04;100.00
11053;BME280;55230;42.602;23.470;2023-06-14T03:36:29;93306.94;;;16.17;100.00
11053;BME280;55230;42.602;23.470;2023-06-14T03:38:55;93302.81;;;16.27;100.00
11053;BME280;55230;42.602;23.470;2023-06-14T03:41:23;93290.97;;;16.36;100.00
11053;BME280;55230;42.602;23.470;2023-06-14T03:43:50;93285.78;;;16.43;100.00
11053;BME280;55230;42.602;23.470;2023-06-14T03:46:16;93294.28;;;16.56;100.00
11053;BME280;55230;42.602;23.470;2023-06-14T03:48:43;93297.75;;;16.62;100.00
11053;BME280;55230;42.602;23.470;2023-06-14T03:51:10;93303.34;;;16.42;100.00
11053;BME280;55230;42.602;23.470;2023-06-14T03:53:37;93297.47;;;16.07;100.00
11053;BME280;55230;42.602;23.470;2023-06-14T03:56:03;93304.47;;;16.19;100.00
11053;BME280;55230;42.602;23.470;2023-06-14T03:58:31;93298.00;;;16.11;100.00
11053;BME280;55230;42.602;23.470;2023-06-14T04:00:58;93306.88;;;16.06;100.00
11053;BME280;55230;42.602;23.470;2023-06-14T04:03:25;93303.31;;;15.89;100.00
11053;BME280;55230;42.602;23.470;2023-06-14T04:05:54;93303.50;;;15.80;100.00
11053;BME280;55230;42.602;23.470;2023-06-14T04:08:21;93304.91;;;15.70;100.00
11053;BME280;55230;42.602;23.470;2023-06-14T04:10:49;93309.81;;;15.66;100.00
11053;BME280;55230;42.602;23.470;2023-06-14T04:13:16;93310.56;;;15.66;100.00
11053;BME280;55230;42.602;23.470;2023-06-14T04:15:44;93311.28;;;15.61;100.00
11053;BME280;55230;42.602;23.470;2023-06-14T04:18:11;93317.66;;;15.33;100.00
11053;BME280;55230;42.602;23.470;2023-06-14T04:20:37;93314.66;;;15.25;100.00
11053;BME280;55230;42.602;23.470;2023-06-14T04:23:11;93314.44;;;15.29;100.00
11053;BME280;55230;42.602;23.470;2023-06-14T04:25:38;93318.09;;;15.26;100.00
11053;BME280;55230;42.602;23.470;2023-06-14T04:28:05;93317.59;;;15.22;100.00
11053;BME280;55230;42.602;23.470;2023-06-14T04:30:33;93318.53;;;15.19;100.00
11053;BME280;55230;42.602;23.470;2023-06-14T04:33:02;93319.06;;;15.23;100.00
11053;BME280;55230;42.602;23.470;2023-06-14T04:35:30;93312.78;;;15.37;100.00
11053;BME280;55230;42.602;23.470;2023-06-14T04:37:57;93314.66;;;15.51;100.00
11053;BME280;55230;42.602;23.470;2023-06-14T04:40:24;93318.56;;;15.44;100.00
11053;BME280;55230;42.602;23.470;2023-06-14T04:42:50;93322.69;;;15.40;100.00
11053;BME280;55230;42.602;23.470;2023-06-14T04:45:17;93318.41;;;15.59;100.00
11053;BME280;55230;42.602;23.470;2023-06-14T04:47:44;93322.22;;;15.72;100.00
11053;BME280;55230;42.602;23.470;2023-06-14T04:50:12;93331.16;;;15.78;100.00
11053;BME280;55230;42.602;23.470;2023-06-14T04:52:39;93322.63;;;15.91;100.00
11053;BME280;55230;42.602;23.470;2023-06-14T04:55:07;93332.22;;;16.23;100.00
11053;BME280;55230;42.602;23.470;2023-06-14T04:57:33;93332.59;;;16.47;100.00
11053;BME280;55230;42.602;23.470;2023-06-14T05:00:00;93330.19;;;16.55;100.00
11053;BME280;55230;42.602;23.470;2023-06-14T05:02:29;93328.53;;;16.79;100.00
11053;BME280;55230;42.602;23.470;2023-06-14T05:04:55;93331.06;;;16.99;100.00
11053;BME280;55230;42.602;23.470;2023-06-14T05:07:23;93340.25;;;17.07;100.00
11053;BME280;55230;42.602;23.470;2023-06-14T05:09:50;93341.50;;;17.17;100.00
11053;BME280;55230;42.602;23.470;2023-06-14T05:12:17;93340.56;;;17.31;100.00
11053;BME280;55230;42.602;23.470;2023-06-14T05:14:44;93337.41;;;17.50;100.00
11053;BME280;55230;42.602;23.470;2023-06-14T05:17:10;93340.13;;;17.83;100.00
11053;BME280;55230;42.602;23.470;2023-06-14T05:19:37;93338.38;;;18.02;100.00
11053;BME280;55230;42.602;23.470;2023-06-14T05:22:03;93346.78;;;18.26;100.00
11053;BME280;55230;42.602;23.470;2023-06-14T05:24:31;93355.69;;;18.49;100.00
11053;BME280;55230;42.602;23.470;2023-06-14T05:26:58;93361.41;;;18.23;100.00
11053;BME280;55230;42.602;23.470;2023-06-14T05:29:25;93358.22;;;17.75;100.00
11053;BME280;55230;42.602;23.470;2023-06-14T05:31:52;93367.16;;;17.81;100.00
11053;BME280;55230;42.602;23.470;2023-06-14T05:34:19;93365.66;;;18.02;100.00
11053;BME280;55230;42.602;23.470;2023-06-14T05:36:45;93363.59;;;17.25;100.00
11053;BME280;55230;42.602;23.470;2023-06-14T05:39:12;93362.09;;;17.24;100.00
11053;BME280;55230;42.602;23.470;2023-06-14T05:41:41;93352.63;;;17.08;100.00
11053;BME280;55230;42.602;23.470;2023-06-14T05:44:07;93364.56;;;17.16;100.00
11053;BME280;55230;42.602;23.470;2023-06-14T05:46:34;93355.88;;;17.18;100.00
11053;BME280;55230;42.602;23.470;2023-06-14T05:49:00;93365.78;;;17.15;100.00
11053;BME280;55230;42.602;23.470;2023-06-14T05:51:27;93369.69;;;16.92;100.00
11053;BME280;55230;42.602;23.470;2023-06-14T05:53:54;93366.00;;;17.12;100.00
11053;BME280;55230;42.602;23.470;2023-06-14T05:56:21;93370.16;;;16.96;100.00
11053;BME280;55230;42.602;23.470;2023-06-14T05:58:49;93369.69;;;17.03;100.00
11053;BME280;55230;42.602;23.470;2023-06-14T06:01:15;93365.72;;;16.93;100.00
11053;BME280;55230;42.602;23.470;2023-06-14T06:03:42;93373.00;;;16.65;100.00
11053;BME280;55230;42.602;23.470;2023-06-14T06:06:11;93376.78;;;16.73;100.00
11053;BME280;55230;42.602;23.470;2023-06-14T06:08:37;93372.38;;;16.87;100.00
11053;BME280;55230;42.602;23.470;2023-06-14T06:11:04;93382.94;;;16.68;100.00
11053;BME280;55230;42.602;23.470;2023-06-14T06:13:30;93382.22;;;16.73;100.00
11053;BME280;55230;42.602;23.470;2023-06-14T06:15:58;93376.75;;;16.68;100.00
11053;BME280;55230;42.602;23.470;2023-06-14T06:18:25;93381.28;;;16.82;100.00
11053;BME280;55230;42.602;23.470;2023-06-14T06:20:51;93383.97;;;16.76;100.00
11053;BME280;55230;42.602;23.470;2023-06-14T06:23:18;93380.34;;;16.48;100.00
11053;BME280;55230;42.602;23.470;2023-06-14T06:25:44;93386.63;;;16.60;100.00
11053;BME280;55230;42.602;23.470;2023-06-14T06:28:11;93391.78;;;16.52;100.00
11053;BME280;55230;42.602;23.470;2023-06-14T06:30:38;93390.19;;;16.40;100.00
11053;BME280;55230;42.602;23.470;2023-06-14T06:33:06;93392.66;;;16.38;100.00
11053;BME280;55230;42.602;23.470;2023-06-14T06:35:32;93396.75;;;16.59;100.00
11053;BME280;55230;42.602;23.470;2023-06-14T06:37:59;93394.41;;;16.83;100.00
11053;BME280;55230;42.602;23.470;2023-06-14T06:40:26;93393.53;;;17.19;100.00
11053;BME280;55230;42.602;23.470;2023-06-14T06:42:53;93400.50;;;17.31;100.00
11053;BME280;55230;42.602;23.470;2023-06-14T06:45:19;93397.59;;;17.52;100.00
11053;BME280;55230;42.602;23.470;2023-06-14T06:47:46;93407.06;;;17.73;100.00
11053;BME280;55230;42.602;23.470;2023-06-14T06:50:14;93407.31;;;17.58;100.00
11053;BME280;55230;42.602;23.470;2023-06-14T06:52:40;93409.06;;;17.78;100.00
11053;BME280;55230;42.602;23.470;2023-06-14T06:55:07;93406.59;;;17.69;100.00
11053;BME280;55230;42.602;23.470;2023-06-14T06:57:34;93413.53;;;17.81;100.00
11053;BME280;55230;42.602;23.470;2023-06-14T07:00:00;93410.56;;;18.12;100.00
11053;BME280;55230;42.602;23.470;2023-06-14T07:02:27;93414.44;;;18.88;100.00
11053;BME280;55230;42.602;23.470;2023-06-14T07:04:55;93424.03;;;19.17;100.00
11053;BME280;55230;42.602;23.470;2023-06-14T07:07:23;93423.00;;;19.25;100.00
11053;BME280;55230;42.602;23.470;2023-06-14T07:09:50;93421.41;;;19.52;100.00
11053;BME280;55230;42.602;23.470;2023-06-14T07:12:17;93417.75;;;20.20;100.00
11053;BME280;55230;42.602;23.470;2023-06-14T07:14:44;93421.63;;;20.59;100.00
11053;BME280;55230;42.602;23.470;2023-06-14T07:17:10;93423.22;;;20.20;100.00
11053;BME280;55230;42.602;23.470;2023-06-14T07:19:37;93419.56;;;19.66;100.00
11053;BME280;55230;42.602;23.470;2023-06-14T07:22:03;93422.50;;;19.21;100.00
11053;BME280;55230;42.602;23.470;2023-06-14T07:24:31;93417.84;;;19.63;100.00
11053;BME280;55230;42.602;23.470;2023-06-14T07:27:00;93418.81;;;20.06;100.00
11053;BME280;55230;42.602;23.470;2023-06-14T07:29:26;93414.03;;;19.77;100.00
11053;BME280;55230;42.602;23.470;2023-06-14T07:31:53;93405.97;;;19.54;100.00
11053;BME280;55230;42.602;23.470;2023-06-14T07:34:19;93421.28;;;19.74;100.00
11053;BME280;55230;42.602;23.470;2023-06-14T07:36:46;93413.94;;;20.58;100.00
11053;BME280;55230;42.602;23.470;2023-06-14T07:39:12;93419.94;;;20.81;100.00
11053;BME280;55230;42.602;23.470;2023-06-14T07:41:41;93414.13;;;20.36;100.00
11053;BME280;55230;42.602;23.470;2023-06-14T07:44:07;93418.50;;;20.20;100.00
11053;BME280;55230;42.602;23.470;2023-06-14T07:46:33;93417.88;;;19.98;100.00
11053;BME280;55230;42.602;23.470;2023-06-14T07:49:00;93415.75;;;19.80;100.00
11053;BME280;55230;42.602;23.470;2023-06-14T07:51:27;93417.41;;;19.94;100.00
11053;BME280;55230;42.602;23.470;2023-06-14T07:53:53;93421.31;;;20.39;100.00
11053;BME280;55230;42.602;23.470;2023-06-14T07:56:20;93424.53;;;20.43;100.00
11053;BME280;55230;42.602;23.470;2023-06-14T07:58:48;93429.44;;;20.15;100.00
11053;BME280;55230;42.602;23.470;2023-06-14T08:01:14;93433.47;;;20.14;100.00
11053;BME280;55230;42.602;23.470;2023-06-14T08:03:42;93433.16;;;20.23;100.00
11053;BME280;55230;42.602;23.470;2023-06-14T08:06:08;93427.38;;;19.50;100.00
11053;BME280;55230;42.602;23.470;2023-06-14T08:08:35;93437.00;;;19.63;100.00
11053;BME280;55230;42.602;23.470;2023-06-14T08:11:01;93439.25;;;20.05;100.00
11053;BME280;55230;42.602;23.470;2023-06-14T08:13:28;93459.88;;;20.46;100.00
11053;BME280;55230;42.602;23.470;2023-06-14T08:15:55;93457.00;;;20.57;100.00
11053;BME280;55230;42.602;23.470;2023-06-14T08:18:23;93450.88;;;20.11;100.00
11053;BME280;55230;42.602;23.470;2023-06-14T08:20:50;93461.69;;;21.16;100.00
11053;BME280;55230;42.602;23.470;2023-06-14T08:23:17;93469.47;;;21.36;100.00
11053;BME280;55230;42.602;23.470;2023-06-14T08:25:46;93470.06;;;21.05;100.00
11053;BME280;55230;42.602;23.470;2023-06-14T08:28:12;93474.38;;;21.19;95.46
11053;BME280;55230;42.602;23.470;2023-06-14T08:30:39;93467.63;;;20.96;100.00
11053;BME280;55230;42.602;23.470;2023-06-14T08:33:07;93463.53;;;21.51;98.24
11053;BME280;55230;42.602;23.470;2023-06-14T08:35:33;93475.28;;;21.70;93.40
11053;BME280;55230;42.602;23.470;2023-06-14T08:38:02;93479.41;;;22.32;96.62
11053;BME280;55230;42.602;23.470;2023-06-14T08:40:29;93482.13;;;22.01;95.08
11053;BME280;55230;42.602;23.470;2023-06-14T08:42:56;93476.31;;;22.23;92.69
11053;BME280;55230;42.602;23.470;2023-06-14T08:45:23;93473.00;;;22.61;85.77
11053;BME280;55230;42.602;23.470;2023-06-14T08:47:50;93465.06;;;23.42;88.29
11053;BME280;55230;42.602;23.470;2023-06-14T08:50:20;93462.81;;;23.66;77.31
11053;BME280;55230;42.602;23.470;2023-06-14T08:52:50;93456.16;;;23.49;78.92
11053;BME280;55230;42.602;23.470;2023-06-14T08:55:18;93445.53;;;22.43;87.22
11053;BME280;55230;42.602;23.470;2023-06-14T08:57:45;93450.72;;;23.69;83.23
11053;BME280;55230;42.602;23.470;2023-06-14T09:00:13;93453.13;;;24.12;78.11
11053;BME280;55230;42.602;23.470;2023-06-14T09:02:40;93452.22;;;23.70;80.50
11053;BME280;55230;42.602;23.470;2023-06-14T09:05:08;93454.28;;;23.90;78.96
11053;BME280;55230;42.602;23.470;2023-06-14T09:07:37;93450.88;;;22.99;80.92
11053;BME280;55230;42.602;23.470;2023-06-14T09:10:07;93449.63;;;22.68;80.62
11053;BME280;55230;42.602;23.470;2023-06-14T09:12:34;93438.47;;;22.79;81.15
11053;BME280;55230;42.602;23.470;2023-06-14T09:15:00;93443.75;;;23.68;77.52
11053;BME280;55230;42.602;23.470;2023-06-14T09:17:31;93440.47;;;24.71;79.01
11053;BME280;55230;42.602;23.470;2023-06-14T09:19:58;93437.81;;;24.65;72.13
11053;BME280;55230;42.602;23.470;2023-06-14T09:22:25;93450.94;;;25.49;70.31
11053;BME280;55230;42.602;23.470;2023-06-14T09:24:52;93440.88;;;25.03;67.64
11053;BME280;55230;42.602;23.470;2023-06-14T09:27:20;93442.25;;;24.48;67.72
11053;BME280;55230;42.602;23.470;2023-06-14T09:29:46;93434.22;;;23.69;72.12
11053;BME280;55230;42.602;23.470;2023-06-14T09:32:12;93431.41;;;24.09;73.12
11053;BME280;55230;42.602;23.470;2023-06-14T09:34:39;93422.41;;;24.29;71.89
11053;BME280;55230;42.602;23.470;2023-06-14T09:37:06;93432.56;;;23.40;72.66
11053;BME280;55230;42.602;23.470;2023-06-14T09:39:32;93431.44;;;22.33;79.85
11053;BME280;55230;42.602;23.470;2023-06-14T09:42:00;93428.03;;;21.58;85.51
11053;BME280;55230;42.602;23.470;2023-06-14T09:44:26;93424.47;;;21.63;84.86
11053;BME280;55230;42.602;23.470;2023-06-14T09:46:55;93414.38;;;21.34;85.86
11053;BME280;55230;42.602;23.470;2023-06-14T09:49:22;93414.59;;;21.12;85.94
11053;BME280;55230;42.602;23.470;2023-06-14T09:51:50;93413.47;;;21.02;88.08
11053;BME280;55230;42.602;23.470;2023-06-14T09:54:19;93411.44;;;21.08;88.87
11053;BME280;55230;42.602;23.470;2023-06-14T09:56:47;93413.97;;;21.25;86.37
11053;BME280;55230;42.602;23.470;2023-06-14T09:59:16;93410.94;;;21.28;89.63
11053;BME280;55230;42.602;23.470;2023-06-14T10:01:45;93412.44;;;21.29;89.41
11053;BME280;55230;42.602;23.470;2023-06-14T10:04:13;93413.75;;;21.23;88.02
11053;BME280;55230;42.602;23.470;2023-06-14T10:06:45;93401.38;;;21.16;89.01
11053;BME280;55230;42.602;23.470;2023-06-14T10:09:12;93403.63;;;21.55;89.04
11053;BME280;55230;42.602;23.470;2023-06-14T10:11:39;93415.94;;;21.67;89.33
11053;BME280;55230;42.602;23.470;2023-06-14T10:14:10;93411.34;;;21.56;82.84
11053;BME280;55230;42.602;23.470;2023-06-14T10:16:39;93409.97;;;22.19;83.92
11053;BME280;55230;42.602;23.470;2023-06-14T10:19:10;93404.28;;;22.30;80.72
11053;BME280;55230;42.602;23.470;2023-06-14T10:21:41;93402.84;;;22.86;79.23
11053;BME280;55230;42.602;23.470;2023-06-14T10:24:10;93402.94;;;22.94;78.44
11053;BME280;55230;42.602;23.470;2023-06-14T10:26:49;93401.88;;;22.84;77.18
11053;BME280;55230;42.602;23.470;2023-06-14T10:29:16;93406.28;;;23.52;77.11
11053;BME280;55230;42.602;23.470;2023-06-14T10:31:44;93393.00;;;23.77;68.85
11053;BME280;55230;42.602;23.470;2023-06-14T10:34:12;93403.34;;;23.50;68.21
11053;BME280;55230;42.602;23.470;2023-06-14T10:36:41;93401.09;;;23.62;70.47
11053;BME280;55230;42.602;23.470;2023-06-14T10:39:10;93405.78;;;23.54;72.16
11053;BME280;55230;42.602;23.470;2023-06-14T10:41:38;93396.72;;;23.33;70.80
11053;BME280;55230;42.602;23.470;2023-06-14T10:46:52;93390.25;;;22.91;71.09
11053;BME280;55230;42.602;23.470;2023-06-14T10:49:19;93378.59;;;22.72;72.77
11053;BME280;55230;42.602;23.470;2023-06-14T10:51:45;93380.50;;;22.77;75.87
11053;BME280;55230;42.602;23.470;2023-06-14T10:54:12;93374.38;;;23.36;73.70
11053;BME280;55230;42.602;23.470;2023-06-14T10:56:43;93378.16;;;23.20;69.40
11053;BME280;55230;42.602;23.470;2023-06-14T10:59:12;93379.47;;;22.35;72.64
11053;BME280;55230;42.602;23.470;2023-06-14T11:01:40;93373.31;;;22.87;72.99
11053;BME280;55230;42.602;23.470;2023-06-14T11:04:09;93363.13;;;23.21;70.21
11053;BME280;55230;42.602;23.470;2023-06-14T11:06:47;93367.81;;;23.73;68.31
11053;BME280;55230;42.602;23.470;2023-06-14T11:09:27;93366.28;;;24.39;72.66
11053;BME280;55230;42.602;23.470;2023-06-14T11:12:03;93363.81;;;24.77;68.76
11053;BME280;55230;42.602;23.470;2023-06-14T11:14:30;93366.66;;;24.92;58.67
11053;BME280;55230;42.602;23.470;2023-06-14T11:16:56;93361.34;;;24.86;63.65
11053;BME280;55230;42.602;23.470;2023-06-14T11:19:25;93357.69;;;25.27;65.63
11053;BME280;55230;42.602;23.470;2023-06-14T11:21:53;93360.47;;;25.70;61.83
11053;BME280;55230;42.602;23.470;2023-06-14T11:24:20;93359.88;;;25.29;60.25
11053;BME280;55230;42.602;23.470;2023-06-14T11:26:46;93359.13;;;25.21;58.53
11053;BME280;55230;42.602;23.470;2023-06-14T11:29:14;93347.81;;;24.75;57.79
11053;BME280;55230;42.602;23.470;2023-06-14T11:31:42;93341.00;;;25.04;60.31
11053;BME280;55230;42.602;23.470;2023-06-14T11:34:09;93339.72;;;24.29;65.29
11053;BME280;55230;42.602;23.470;2023-06-14T11:36:38;93345.28;;;23.61;66.41
11053;BME280;55230;42.602;23.470;2023-06-14T11:39:05;93343.72;;;23.53;66.98
11053;BME280;55230;42.602;23.470;2023-06-14T11:41:32;93341.34;;;23.36;68.35
11053;BME280;55230;42.602;23.470;2023-06-14T11:43:59;93340.53;;;22.89;67.05
11053;BME280;55230;42.602;23.470;2023-06-14T11:46:26;93338.94;;;23.07;68.61
11053;BME280;55230;42.602;23.470;2023-06-14T11:48:53;93333.97;;;22.79;69.33
11053;BME280;55230;42.602;23.470;2023-06-14T11:51:19;93326.97;;;22.78;66.35
11053;BME280;55230;42.602;23.470;2023-06-14T11:53:47;93324.00;;;23.02;66.03
11053;BME280;55230;42.602;23.470;2023-06-14T11:56:14;93317.69;;;23.07;67.28
11053;BME280;55230;42.602;23.470;2023-06-14T11:58:42;93317.31;;;23.37;66.42
11053;BME280;55230;42.602;23.470;2023-06-14T12:01:08;93304.63;;;23.34;70.04
11053;BME280;55230;42.602;23.470;2023-06-14T12:03:35;93308.22;;;23.29;66.56
11053;BME280;55230;42.602;23.470;2023-06-14T12:06:05;93298.59;;;23.09;67.88
11053;BME280;55230;42.602;23.470;2023-06-14T12:08:33;93295.88;;;22.96;69.76
11053;BME280;55230;42.602;23.470;2023-06-14T12:11:06;93295.88;;;22.96;67.58
11053;BME280;55230;42.602;23.470;2023-06-14T12:13:34;93284.03;;;23.14;66.45
11053;BME280;55230;42.602;23.470;2023-06-14T12:16:01;93289.94;;;23.05;67.63
11053;BME280;55230;42.602;23.470;2023-06-14T12:18:32;93289.63;;;22.96;67.24
11053;BME280;55230;42.602;23.470;2023-06-14T12:20:59;93297.09;;;23.21;70.40
11053;BME280;55230;42.602;23.470;2023-06-14T12:23:38;93300.00;;;23.49;68.59
11053;BME280;55230;42.602;23.470;2023-06-14T12:26:04;93291.72;;;23.62;65.13
11053;BME280;55230;42.602;23.470;2023-06-14T12:28:32;93287.94;;;23.73;63.81
11053;BME280;55230;42.602;23.470;2023-06-14T12:30:59;93292.69;;;23.31;64.57
11053;BME280;55230;42.602;23.470;2023-06-14T12:33:25;93288.00;;;23.26;65.48
11053;BME280;55230;42.602;23.470;2023-06-14T12:35:54;93288.78;;;23.01;65.33
11053;BME280;55230;42.602;23.470;2023-06-14T12:38:21;93289.69;;;23.16;71.10
11053;BME280;55230;42.602;23.470;2023-06-14T12:40:47;93285.25;;;23.39;71.71
11053;BME280;55230;42.602;23.470;2023-06-14T12:43:14;93289.09;;;23.57;74.22
11053;BME280;55230;42.602;23.470;2023-06-14T12:45:42;93287.78;;;23.71;79.71
11053;BME280;55230;42.602;23.470;2023-06-14T12:48:09;93288.16;;;23.75;86.14